createdAt,value
2018-07-30T00:00:50.586Z,3.30
2018-07-30T00:03:21.622Z,3.30
2018-07-30T00:05:52.364Z,2.60
2018-07-30T00:08:23.078Z,2.43
2018-07-30T00:10:53.724Z,3.03
2018-07-30T00:13:24.411Z,2.53
2018-07-30T00:15:54.993Z,2.20
2018-07-30T00:18:25.618Z,3.00
2018-07-30T00:20:57.278Z,2.60
2018-07-30T00:23:27.813Z,2.77
2018-07-30T00:25:58.302Z,2.93
2018-07-30T00:28:28.972Z,2.40
2018-07-30T00:30:59.503Z,2.90
2018-07-30T00:33:30.229Z,3.30
2018-07-30T00:36:00.750Z,2.93
2018-07-30T00:38:31.440Z,2.53
2018-07-30T00:41:01.812Z,2.30
2018-07-30T00:43:33.108Z,2.43
2018-07-30T00:46:04.039Z,2.70
2018-07-30T00:48:34.542Z,2.43
2018-07-30T00:51:05.188Z,2.83
2018-07-30T00:53:35.804Z,3.30
2018-07-30T00:56:06.544Z,4.53
2018-07-30T00:58:37.796Z,2.93
2018-07-30T01:01:08.513Z,3.00
2018-07-30T01:03:39.698Z,2.60
2018-07-30T01:06:10.417Z,2.60
2018-07-30T01:08:40.872Z,2.87
2018-07-30T01:11:11.871Z,2.73
2018-07-30T01:13:42.499Z,2.80
2018-07-30T01:16:13.891Z,3.20
2018-07-30T01:18:44.578Z,2.83
2018-07-30T01:21:15.274Z,2.90
2018-07-30T01:23:45.809Z,3.70
2018-07-30T01:26:21.564Z,3.00
2018-07-30T01:28:52.221Z,3.07
2018-07-30T01:31:23.437Z,2.93
2018-07-30T01:33:54.303Z,3.00
2018-07-30T01:36:24.748Z,3.03
2018-07-30T01:38:55.241Z,3.53
2018-07-30T01:41:26.019Z,2.63
2018-07-30T01:43:56.589Z,3.03
2018-07-30T01:46:27.206Z,2.90
2018-07-30T01:48:57.662Z,2.90
2018-07-30T01:51:28.101Z,3.10
2018-07-30T01:53:58.534Z,3.30
2018-07-30T01:56:29.112Z,3.13
2018-07-30T01:59:00.497Z,2.90
2018-07-30T02:01:30.736Z,3.17
2018-07-30T02:04:01.346Z,2.73
2018-07-30T02:06:31.611Z,3.07
2018-07-30T02:09:02.566Z,2.73
2018-07-30T02:11:33.250Z,3.03
2018-07-30T02:14:04.498Z,2.97
2018-07-30T02:16:34.952Z,3.23
2018-07-30T02:19:05.549Z,2.73
2018-07-30T02:21:36.545Z,2.80
2018-07-30T02:24:08.340Z,3.70
2018-07-30T02:26:39.193Z,3.20
2018-07-30T02:29:09.954Z,3.63
2018-07-30T02:31:40.637Z,3.00
2018-07-30T02:34:11.282Z,2.87
2018-07-30T02:36:41.876Z,2.63
2018-07-30T02:39:14.507Z,2.93
2018-07-30T02:41:45.161Z,2.70
2018-07-30T02:44:15.751Z,3.50
2018-07-30T02:46:46.395Z,3.40
2018-07-30T02:49:16.677Z,2.80
2018-07-30T02:51:47.036Z,2.90
2018-07-30T02:54:17.791Z,3.00
2018-07-30T02:56:47.999Z,2.87
2018-07-30T02:59:18.822Z,2.60
2018-07-30T03:01:49.275Z,2.80
2018-07-30T03:04:19.745Z,3.20
2018-07-30T03:06:50.429Z,2.80
2018-07-30T03:09:21.020Z,3.20
2018-07-30T03:11:51.730Z,3.20
2018-07-30T03:14:23.392Z,3.07
2018-07-30T03:16:54.095Z,3.20
2018-07-30T03:19:25.324Z,3.37
2018-07-30T03:21:55.573Z,3.30
2018-07-30T03:24:26.112Z,3.30
2018-07-30T03:26:56.684Z,3.13
2018-07-30T03:29:27.362Z,3.70
2018-07-30T03:31:57.880Z,3.00
2018-07-30T03:34:28.353Z,3.03
2018-07-30T03:37:00.042Z,2.93
2018-07-30T03:39:30.788Z,3.87
2018-07-30T03:42:00.971Z,3.03
2018-07-30T03:44:31.630Z,2.93
2018-07-30T03:47:02.734Z,3.53
2018-07-30T03:49:34.158Z,3.10
2018-07-30T03:52:05.064Z,3.00
2018-07-30T03:54:35.341Z,4.10
2018-07-30T03:57:05.952Z,2.10
2018-07-30T03:59:36.548Z,2.50
2018-07-30T04:02:06.824Z,2.87
2018-07-30T04:04:37.400Z,2.60
2018-07-30T04:07:07.840Z,2.80
2018-07-30T04:09:38.630Z,3.00
2018-07-30T04:12:09.682Z,2.57
2018-07-30T04:14:40.103Z,2.80
2018-07-30T04:17:10.538Z,2.83
2018-07-30T04:19:41.201Z,3.50
2018-07-30T04:22:12.772Z,3.10
2018-07-30T04:24:45.713Z,2.67
2018-07-30T04:27:16.265Z,2.73
2018-07-30T04:29:46.807Z,2.70
2018-07-30T04:32:17.442Z,2.80
2018-07-30T04:34:48.250Z,2.63
2018-07-30T04:37:18.796Z,2.27
2018-07-30T04:39:49.432Z,2.53
2018-07-30T04:42:19.656Z,2.67
2018-07-30T04:44:50.095Z,2.53
2018-07-30T04:47:20.798Z,2.57
2018-07-30T04:49:51.364Z,3.10
2018-07-30T04:52:21.978Z,3.07
2018-07-30T04:54:52.424Z,2.90
2018-07-30T04:57:23.008Z,2.90
2018-07-30T04:59:53.605Z,2.90
2018-07-30T05:02:24.272Z,2.37
2018-07-30T05:04:54.832Z,2.60
2018-07-30T05:07:25.856Z,2.30
2018-07-30T05:09:56.502Z,3.40
2018-07-30T05:12:26.726Z,2.70
2018-07-30T05:14:57.487Z,3.30
2018-07-30T05:17:28.085Z,2.20
2018-07-30T05:19:58.601Z,2.67
2018-07-30T05:22:29.237Z,2.37
2018-07-30T05:25:00.016Z,2.57
2018-07-30T05:27:30.652Z,2.33
2018-07-30T05:30:01.369Z,1.80
2018-07-30T05:32:32.698Z,2.63
2018-07-30T05:35:03.298Z,1.90
2018-07-30T05:37:33.965Z,2.20
2018-07-30T05:40:05.123Z,1.87
2018-07-30T05:42:35.851Z,2.13
2018-07-30T05:45:06.895Z,2.40
2018-07-30T05:47:37.500Z,2.63
2018-07-30T05:50:08.097Z,2.43
2018-07-30T05:52:38.683Z,2.27
2018-07-30T05:55:09.392Z,1.83
2018-07-30T05:57:39.956Z,2.73
2018-07-30T06:00:10.177Z,1.70
2018-07-30T06:02:40.801Z,1.77
2018-07-30T06:05:11.742Z,1.80
2018-07-30T06:07:42.376Z,1.43
2018-07-30T06:10:12.874Z,1.70
2018-07-30T06:12:43.521Z,1.90
2018-07-30T06:15:14.172Z,1.80
2018-07-30T06:17:45.000Z,1.60
2018-07-30T06:20:15.510Z,1.80
2018-07-30T06:22:46.071Z,2.20
2018-07-30T06:25:16.679Z,1.87
2018-07-30T06:27:47.124Z,1.60
2018-07-30T06:30:17.653Z,1.80
2018-07-30T06:32:48.240Z,1.80
2018-07-30T06:35:20.126Z,1.50
2018-07-30T06:37:50.791Z,1.60
2018-07-30T06:40:20.900Z,1.53
2018-07-30T06:42:51.428Z,2.00
2018-07-30T06:45:22.022Z,1.70
2018-07-30T06:47:52.733Z,2.20
2018-07-30T06:50:23.424Z,1.93
2018-07-30T06:52:54.053Z,2.13
2018-07-30T06:55:25.128Z,2.03
2018-07-30T06:57:55.710Z,1.90
2018-07-30T07:00:26.258Z,2.00
2018-07-30T07:02:56.693Z,1.87
2018-07-30T07:05:27.165Z,2.07
2018-07-30T07:07:57.817Z,1.97
2018-07-30T07:10:28.451Z,2.00
2018-07-30T07:12:59.110Z,1.80
2018-07-30T07:15:29.671Z,1.50
2018-07-30T07:18:00.204Z,1.87
2018-07-30T07:20:30.657Z,1.70
2018-07-30T07:23:01.323Z,2.13
2018-07-30T07:25:31.880Z,2.17
2018-07-30T07:28:02.517Z,1.67
2018-07-30T07:30:33.265Z,1.90
2018-07-30T07:33:03.854Z,1.93
2018-07-30T07:35:34.379Z,1.90
2018-07-30T07:38:05.109Z,2.10
2018-07-30T07:40:35.740Z,1.73
2018-07-30T07:43:06.335Z,1.80
2018-07-30T07:45:36.940Z,2.03
2018-07-30T07:48:07.546Z,1.93
2018-07-30T07:50:38.180Z,1.73
2018-07-30T07:53:09.089Z,2.20
2018-07-30T07:55:39.849Z,1.80
2018-07-30T07:58:10.385Z,2.13
2018-07-30T08:00:40.964Z,2.20
2018-07-30T08:03:11.808Z,2.20
2018-07-30T08:05:43.215Z,2.10
2018-07-30T08:08:13.912Z,2.10
2018-07-30T08:10:44.886Z,2.00
2018-07-30T08:13:15.475Z,2.20
2018-07-30T08:15:46.136Z,2.20
2018-07-30T08:18:16.949Z,2.20
2018-07-30T08:20:47.889Z,1.80
2018-07-30T08:23:18.615Z,2.33
2018-07-30T08:25:49.395Z,2.07
2018-07-30T08:28:19.937Z,1.90
2018-07-30T08:30:50.655Z,2.20
2018-07-30T08:33:21.351Z,2.03
2018-07-30T08:35:52.109Z,1.93
2018-07-30T08:38:22.755Z,2.13
2018-07-30T08:40:53.862Z,1.87
2018-07-30T08:43:24.316Z,1.77
2018-07-30T08:45:55.063Z,1.70
2018-07-30T08:48:25.558Z,1.80
2018-07-30T08:50:56.584Z,2.42
2018-07-30T08:53:27.404Z,1.50
2018-07-30T08:55:58.075Z,1.70
2018-07-30T08:58:28.676Z,1.75
2018-07-30T09:00:59.496Z,1.80
2018-07-30T09:03:30.804Z,1.65
2018-07-30T09:06:01.431Z,1.50
2018-07-30T09:08:32.125Z,2.37
2018-07-30T09:11:02.832Z,1.40
2018-07-30T09:13:34.000Z,2.10
2018-07-30T09:16:04.685Z,1.90
2018-07-30T09:18:35.354Z,2.08
2018-07-30T09:21:05.904Z,1.50
2018-07-30T09:23:36.551Z,1.82
2018-07-30T09:26:07.104Z,1.35
2018-07-30T09:28:38.356Z,1.60
2018-07-30T09:31:09.557Z,2.17
2018-07-30T09:33:40.276Z,1.62
2018-07-30T09:36:11.249Z,1.90
2018-07-30T09:38:42.109Z,2.05
2018-07-30T09:41:15.781Z,1.77
2018-07-30T09:43:46.600Z,1.70
2018-07-30T09:46:17.618Z,1.77
2018-07-30T09:48:48.371Z,2.30
2018-07-30T09:51:18.896Z,1.90
2018-07-30T09:53:49.695Z,1.95
2018-07-30T09:56:20.459Z,1.55
2018-07-30T09:58:51.144Z,1.60
2018-07-30T10:01:26.918Z,1.50
2018-07-30T10:03:58.376Z,1.70
2018-07-30T10:06:29.081Z,1.47
2018-07-30T10:08:59.809Z,1.83
2018-07-30T10:11:30.501Z,2.17
2018-07-30T10:14:01.068Z,1.90
2018-07-30T10:16:31.631Z,1.92
2018-07-30T10:19:02.503Z,1.37
2018-07-30T10:21:33.106Z,1.80
2018-07-30T10:24:03.718Z,1.80
2018-07-30T10:26:34.580Z,2.08
2018-07-30T10:29:05.252Z,1.30
2018-07-30T10:31:35.919Z,2.27
2018-07-30T10:34:06.534Z,2.25
2018-07-30T10:36:37.269Z,2.03
2018-07-30T10:39:08.913Z,2.20
2018-07-30T10:41:39.665Z,1.60
2018-07-30T10:44:10.166Z,2.20
2018-07-30T10:46:41.429Z,1.83
2018-07-30T10:49:12.035Z,2.07
2018-07-30T10:51:42.833Z,2.13
2018-07-30T10:54:13.666Z,1.93
2018-07-30T10:56:44.297Z,2.27
2018-07-30T10:59:14.950Z,1.92
2018-07-30T11:01:45.612Z,1.72
2018-07-30T11:04:16.169Z,1.60
2018-07-30T11:06:46.792Z,1.47
2018-07-30T11:09:17.361Z,1.60
2018-07-30T11:11:48.013Z,1.50
2018-07-30T11:14:18.657Z,1.70
2018-07-30T11:16:49.183Z,1.80
2018-07-30T11:19:19.774Z,1.37
2018-07-30T11:21:50.357Z,2.03
2018-07-30T11:24:21.054Z,2.57
2018-07-30T11:26:52.597Z,1.90
2018-07-30T11:29:23.200Z,1.70
2018-07-30T11:31:53.896Z,2.00
2018-07-30T11:34:24.586Z,1.73
2018-07-30T11:37:02.596Z,1.80
2018-07-30T11:39:33.264Z,2.13
2018-07-30T11:42:03.944Z,2.30
2018-07-30T11:44:34.639Z,2.07
2018-07-30T11:47:05.512Z,2.40
2018-07-30T11:49:37.398Z,2.03
2018-07-30T11:52:08.445Z,2.40
2018-07-30T11:54:39.040Z,2.03
2018-07-30T11:57:09.747Z,1.80
2018-07-30T11:59:40.411Z,2.03
2018-07-30T12:02:11.127Z,2.80
2018-07-30T12:04:41.948Z,2.37
2018-07-30T12:07:12.661Z,2.87
2018-07-30T12:09:43.340Z,2.30
2018-07-30T12:12:13.975Z,2.40
2018-07-30T12:14:44.488Z,1.90
2018-07-30T12:17:15.277Z,2.00
2018-07-30T12:19:46.114Z,2.00
2018-07-30T12:22:16.723Z,2.40
2018-07-30T12:24:47.456Z,1.80
2018-07-30T12:27:18.023Z,2.10
2018-07-30T12:29:48.577Z,1.97
2018-07-30T12:32:19.102Z,2.20
2018-07-30T12:34:50.321Z,2.37
2018-07-30T12:37:20.938Z,1.80
2018-07-30T12:39:51.565Z,2.50
2018-07-30T12:42:22.233Z,2.30
2018-07-30T12:44:52.791Z,2.00
2018-07-30T12:47:23.289Z,2.53
2018-07-30T12:49:55.572Z,2.60
2018-07-30T12:52:26.414Z,2.23
2018-07-30T12:54:57.147Z,2.23
2018-07-30T12:57:28.073Z,2.03
2018-07-30T12:59:58.566Z,1.97
2018-07-30T13:02:29.271Z,2.43
2018-07-30T13:04:59.802Z,2.50
2018-07-30T13:07:30.613Z,2.27
2018-07-30T13:10:01.228Z,2.10
2018-07-30T13:12:32.487Z,2.30
2018-07-30T13:15:04.288Z,1.93
2018-07-30T13:17:34.940Z,2.07
2018-07-30T13:20:06.170Z,2.00
2018-07-30T13:22:36.879Z,2.23
2018-07-30T13:25:07.808Z,2.30
2018-07-30T13:27:38.657Z,2.30
2018-07-30T13:30:10.303Z,2.57
2018-07-30T13:32:41.060Z,2.27
2018-07-30T13:35:11.693Z,2.47
2018-07-30T13:37:42.283Z,2.50
2018-07-30T13:40:12.872Z,2.27
2018-07-30T13:42:43.345Z,1.90
2018-07-30T13:45:13.940Z,2.50
2018-07-30T13:47:44.510Z,2.00
2018-07-30T13:50:15.363Z,2.40
2018-07-30T13:52:46.193Z,2.43
2018-07-30T13:55:16.376Z,1.87
2018-07-30T13:57:46.889Z,2.60
2018-07-30T14:00:17.534Z,2.50
2018-07-30T14:02:48.184Z,2.43
2018-07-30T14:05:18.746Z,2.07
2018-07-30T14:07:49.358Z,2.43
2018-07-30T14:10:20.034Z,2.57
2018-07-30T14:12:50.780Z,2.60
2018-07-30T14:15:21.617Z,2.50
2018-07-30T14:17:51.933Z,2.43
2018-07-30T14:20:22.468Z,2.97
2018-07-30T14:22:53.108Z,2.33
2018-07-30T14:25:23.749Z,2.57
2018-07-30T14:27:54.395Z,2.60
2018-07-30T14:30:25.090Z,2.60
2018-07-30T14:32:55.806Z,2.93
2018-07-30T14:35:26.361Z,2.30
2018-07-30T14:37:57.017Z,2.30
2018-07-30T14:40:28.274Z,3.50
2018-07-30T14:42:58.924Z,2.80
2018-07-30T14:45:29.602Z,2.37
2018-07-30T14:48:00.760Z,2.10
2018-07-30T14:50:37.600Z,2.30
2018-07-30T14:53:08.233Z,2.30
2018-07-30T14:55:38.942Z,2.30
2018-07-30T14:58:09.597Z,2.13
2018-07-30T15:00:40.321Z,2.10
2018-07-30T15:03:10.977Z,2.53
2018-07-30T15:05:41.849Z,2.47
2018-07-30T15:08:12.441Z,2.83
2018-07-30T15:10:43.142Z,2.60
2018-07-30T15:13:14.233Z,2.47
2018-07-30T15:15:45.072Z,2.47
2018-07-30T15:18:15.661Z,2.40
2018-07-30T15:20:46.122Z,2.40
2018-07-30T15:23:16.944Z,2.40
2018-07-30T15:25:47.613Z,2.70
2018-07-30T15:28:18.152Z,2.87
2018-07-30T15:30:48.638Z,2.70
2018-07-30T15:33:19.341Z,2.67
2018-07-30T15:35:49.921Z,2.47
2018-07-30T15:38:20.685Z,2.03
2018-07-30T15:40:51.347Z,3.87
2018-07-30T15:43:21.852Z,2.63
2018-07-30T15:45:52.587Z,2.80
2018-07-30T15:48:23.125Z,2.30
2018-07-30T15:50:53.858Z,2.60
2018-07-30T15:53:24.535Z,2.53
2018-07-30T15:55:55.160Z,2.23
2018-07-30T15:58:25.776Z,2.40
2018-07-30T16:00:56.398Z,2.40
2018-07-30T16:03:29.873Z,2.30
2018-07-30T16:06:00.757Z,2.80
2018-07-30T16:08:31.227Z,2.57
2018-07-30T16:11:01.784Z,2.60
2018-07-30T16:13:32.355Z,2.00
2018-07-30T16:16:03.046Z,2.70
2018-07-30T16:18:33.358Z,2.03
2018-07-30T16:21:03.847Z,2.40
2018-07-30T16:23:34.489Z,2.07
2018-07-30T16:26:05.256Z,2.30
2018-07-30T16:28:35.956Z,2.20
2018-07-30T16:31:06.638Z,2.40
2018-07-30T16:33:37.209Z,2.33
2018-07-30T16:36:08.114Z,2.07
2018-07-30T16:38:38.641Z,2.90
2018-07-30T16:41:09.394Z,2.60
2018-07-30T16:43:40.048Z,2.13
2018-07-30T16:46:10.763Z,2.60
2018-07-30T16:48:41.378Z,2.33
2018-07-30T16:51:12.229Z,2.57
2018-07-30T16:53:42.847Z,2.43
2018-07-30T16:56:13.689Z,2.90
2018-07-30T16:58:44.862Z,2.13
2018-07-30T17:01:15.770Z,2.50
2018-07-30T17:03:46.384Z,2.40
2018-07-30T17:06:17.701Z,2.77
2018-07-30T17:08:48.273Z,2.90
2018-07-30T17:11:18.984Z,3.20
2018-07-30T17:13:49.621Z,3.20
2018-07-30T17:16:26.933Z,2.90
2018-07-30T17:18:57.573Z,2.40
2018-07-30T17:21:28.140Z,2.80
2018-07-30T17:23:59.022Z,2.90
2018-07-30T17:26:29.294Z,2.57
2018-07-30T17:28:59.655Z,2.57
2018-07-30T17:31:30.667Z,2.30
2018-07-30T17:34:01.698Z,3.10
2018-07-30T17:36:32.627Z,3.60
2018-07-30T17:39:03.801Z,2.57
2018-07-30T17:41:34.379Z,3.07
2018-07-30T17:44:05.248Z,3.00
2018-07-30T17:46:35.740Z,3.67
2018-07-30T17:49:06.685Z,3.13
2018-07-30T17:51:37.538Z,2.60
2018-07-30T17:54:08.020Z,2.87
2018-07-30T17:56:39.083Z,3.00
2018-07-30T17:59:10.204Z,2.60
2018-07-30T18:01:41.143Z,2.97
2018-07-30T18:04:11.814Z,3.20
2018-07-30T18:06:42.549Z,2.60
2018-07-30T18:09:13.283Z,2.17
2018-07-30T18:11:44.089Z,3.23
2018-07-30T18:14:14.619Z,3.20
2018-07-30T18:16:45.047Z,2.97
2018-07-30T18:19:15.569Z,3.63
2018-07-30T18:21:46.759Z,3.20
2018-07-30T18:24:17.379Z,3.03
2018-07-30T18:26:48.010Z,3.07
2018-07-30T18:29:18.722Z,2.77
2018-07-30T18:31:49.899Z,3.33
2018-07-30T18:34:20.696Z,2.80
2018-07-30T18:36:51.764Z,2.73
2018-07-30T18:39:22.353Z,3.20
2018-07-30T18:41:53.066Z,3.10
2018-07-30T18:44:24.252Z,2.83
2018-07-30T18:46:54.996Z,3.17
2018-07-30T18:49:25.744Z,2.90
2018-07-30T18:51:56.778Z,2.77
2018-07-30T18:54:27.602Z,3.20
2018-07-30T18:56:58.657Z,2.73
2018-07-30T18:59:29.041Z,2.70
2018-07-30T19:02:00.241Z,2.83
2018-07-30T19:04:30.882Z,3.50
2018-07-30T19:07:01.524Z,3.20
2018-07-30T19:09:32.239Z,2.50
2018-07-30T19:12:02.932Z,2.60
2018-07-30T19:14:33.907Z,3.17
2018-07-30T19:17:05.247Z,3.30
2018-07-30T19:19:35.877Z,3.00
2018-07-30T19:22:06.813Z,2.77
2018-07-30T19:24:37.426Z,2.93
2018-07-30T19:27:07.790Z,2.77
2018-07-30T19:29:38.887Z,3.50
2018-07-30T19:32:09.214Z,3.10
2018-07-30T19:34:40.027Z,2.90
2018-07-30T19:37:10.981Z,3.50
2018-07-30T19:39:41.373Z,3.67
2018-07-30T19:42:12.205Z,3.10
2018-07-30T19:44:42.860Z,3.00
2018-07-30T19:47:13.277Z,3.10
2018-07-30T19:49:43.899Z,3.43
2018-07-30T19:52:14.798Z,3.20
2018-07-30T19:54:45.837Z,2.90
2018-07-30T19:57:16.466Z,4.90
2018-07-30T19:59:47.564Z,3.03
2018-07-30T20:02:18.606Z,3.03
2018-07-30T20:04:49.593Z,2.83
2018-07-30T20:07:20.400Z,3.07
2018-07-30T20:09:51.482Z,2.90
2018-07-30T20:12:22.180Z,3.20
2018-07-30T20:14:53.056Z,3.23
2018-07-30T20:17:23.689Z,2.83
2018-07-30T20:19:54.764Z,2.97
2018-07-30T20:22:32.052Z,3.00
2018-07-30T20:25:03.082Z,3.20
2018-07-30T20:27:33.704Z,3.03
2018-07-30T20:30:05.240Z,2.93
2018-07-30T20:32:36.669Z,3.23
2018-07-30T20:35:07.507Z,3.23
2018-07-30T20:37:38.050Z,3.20
2018-07-30T20:40:08.300Z,4.30
2018-07-30T20:42:38.678Z,3.00
2018-07-30T20:45:09.411Z,2.57
2018-07-30T20:47:39.683Z,3.37
2018-07-30T20:50:10.613Z,2.47
2018-07-30T20:52:41.292Z,2.57
2018-07-30T20:55:12.414Z,3.37
2018-07-30T20:57:43.957Z,3.87
2018-07-30T21:00:14.793Z,3.50
2018-07-30T21:02:45.404Z,3.47
2018-07-30T21:05:15.977Z,3.40
2018-07-30T21:07:46.769Z,3.67
2018-07-30T21:10:17.606Z,3.40
2018-07-30T21:12:48.222Z,2.50
2018-07-30T21:15:18.971Z,3.40
2018-07-30T21:17:49.989Z,2.70
2018-07-30T21:20:20.149Z,3.37
2018-07-30T21:22:51.537Z,3.33
2018-07-30T21:25:22.392Z,2.90
2018-07-30T21:27:53.247Z,3.50
2018-07-30T21:30:23.557Z,3.00
2018-07-30T21:32:54.108Z,2.90
2018-07-30T21:35:25.053Z,2.90
2018-07-30T21:37:55.964Z,3.70
2018-07-30T21:40:26.340Z,3.50
2018-07-30T21:42:56.878Z,3.60
2018-07-30T21:45:27.581Z,3.90
2018-07-30T21:47:58.324Z,3.70
2018-07-30T21:50:30.992Z,3.23
2018-07-30T21:53:01.956Z,2.80
2018-07-30T21:55:32.546Z,2.80
2018-07-30T21:58:02.734Z,3.50
2018-07-30T22:00:33.296Z,2.90
2018-07-30T22:03:04.743Z,3.93
2018-07-30T22:05:35.386Z,3.67
2018-07-30T22:08:06.143Z,4.37
2018-07-30T22:10:37.290Z,3.70
2018-07-30T22:13:08.086Z,3.20
2018-07-30T22:15:38.953Z,3.80
2018-07-30T22:18:09.677Z,2.60
2018-07-30T22:20:40.508Z,2.77
2018-07-30T22:23:11.138Z,3.50
2018-07-30T22:25:41.791Z,3.30
2018-07-30T22:28:12.389Z,4.50
2018-07-30T22:30:43.184Z,2.67
2018-07-30T22:33:13.897Z,3.80
2018-07-30T22:35:44.631Z,3.27
2018-07-30T22:38:15.160Z,3.30
2018-07-30T22:40:45.787Z,2.93
2018-07-30T22:43:16.507Z,3.40
2018-07-30T22:45:47.239Z,3.63
2018-07-30T22:48:17.904Z,4.30
2018-07-30T22:50:49.168Z,3.10
2018-07-30T22:53:19.863Z,3.50
2018-07-30T22:55:50.557Z,3.40
2018-07-30T22:58:21.499Z,3.07
2018-07-30T23:00:51.856Z,3.53
2018-07-30T23:03:21.979Z,2.97
2018-07-30T23:05:52.601Z,3.63
2018-07-30T23:08:22.796Z,3.20
2018-07-30T23:10:53.308Z,3.77
2018-07-30T23:13:30.836Z,3.70
2018-07-30T23:16:01.506Z,3.40
2018-07-30T23:18:31.729Z,3.30
2018-07-30T23:21:02.059Z,3.23
2018-07-30T23:23:32.532Z,3.53
2018-07-30T23:26:02.869Z,3.60
2018-07-30T23:28:33.433Z,2.93
2018-07-30T23:31:04.112Z,3.67
2018-07-30T23:33:34.745Z,3.33
2018-07-30T23:36:05.261Z,3.40
2018-07-30T23:38:35.830Z,3.80
2018-07-30T23:41:06.444Z,2.70
2018-07-30T23:43:36.907Z,3.50
2018-07-30T23:46:07.536Z,3.73
2018-07-30T23:48:38.116Z,3.20
2018-07-30T23:51:09.447Z,3.77
2018-07-30T23:53:40.145Z,3.27
2018-07-30T23:56:10.667Z,3.80
2018-07-30T23:58:47.994Z,3.20
